createdAt,value
2023-04-14T00:00:03.422Z,1009.47
2023-04-14T00:05:03.541Z,1009.5
2023-04-14T00:10:03.054Z,1009.54
2023-04-14T00:15:03.722Z,1009.47
2023-04-14T00:20:03.573Z,1009.46
2023-04-14T00:25:03.372Z,1009.52
2023-04-14T00:30:03.269Z,1009.29
2023-04-14T00:35:02.994Z,1009.27
2023-04-14T00:40:03.564Z,1009.28
2023-04-14T00:45:03.228Z,1009.34
2023-04-14T00:50:03.039Z,1009.41
2023-04-14T00:55:03.663Z,1009.34
2023-04-14T01:00:03.660Z,1009.36
2023-04-14T01:05:04.238Z,1009.35
2023-04-14T01:10:03.358Z,1009.35
2023-04-14T01:15:03.378Z,1009.32
2023-04-14T01:20:03.048Z,1009.39
2023-04-14T01:25:03.768Z,1009.43
2023-04-14T01:30:03.570Z,1009.48
2023-04-14T01:35:03.300Z,1009.34
2023-04-14T01:40:03.321Z,1009.47
2023-04-14T01:45:02.841Z,1009.49
2023-04-14T01:50:02.876Z,1009.65
2023-04-14T01:55:04.229Z,1009.67
2023-04-14T02:00:03.486Z,1009.67
2023-04-14T02:05:03.456Z,1009.61
2023-04-14T02:10:03.270Z,1009.64
2023-04-14T02:15:03.747Z,1009.66
2023-04-14T02:20:03.459Z,1009.62
2023-04-14T02:25:03.137Z,1009.63
2023-04-14T02:30:02.857Z,1009.62
2023-04-14T02:35:03.759Z,1009.67
2023-04-14T02:40:03.438Z,1009.7
2023-04-14T02:45:03.130Z,1009.67
2023-04-14T02:50:02.894Z,1009.67
2023-04-14T02:55:03.831Z,1009.6
2023-04-14T03:00:03.848Z,1009.48
2023-04-14T03:05:03.749Z,1009.47
2023-04-14T03:10:03.544Z,1009.43
2023-04-14T03:15:03.348Z,1009.42
2023-04-14T03:20:03.303Z,1009.35
2023-04-14T03:25:03.645Z,1009.19
2023-04-14T03:30:03.470Z,1009.19
2023-04-14T03:35:03.320Z,1009.35
2023-04-14T03:40:02.846Z,1009.38
2023-04-14T03:45:03.619Z,1009.32
2023-04-14T03:50:03.458Z,1009.31
2023-04-14T03:55:03.359Z,1009.35
2023-04-14T04:00:03.158Z,1009.33
2023-04-14T04:05:03.977Z,1009.34
2023-04-14T04:10:02.852Z,1009.28
2023-04-14T04:15:03.189Z,1009.21
2023-04-14T04:20:03.154Z,1009.26
2023-04-14T04:25:03.800Z,1009.31
2023-04-14T04:30:02.956Z,1009.34
2023-04-14T04:35:03.711Z,1009.47
2023-04-14T04:40:03.400Z,1009.34
2023-04-14T04:45:03.165Z,1009.44
2023-04-14T04:50:02.998Z,1009.4
2023-04-14T04:55:04.264Z,1009.44
2023-04-14T05:00:03.424Z,1009.47
2023-04-14T05:05:03.417Z,1009.45
2023-04-14T05:10:03.095Z,1009.45
2023-04-14T05:15:02.891Z,1009.41
2023-04-14T05:20:03.635Z,1009.46
2023-04-14T05:25:03.357Z,1009.6
2023-04-14T05:30:03.386Z,1009.6
2023-04-14T05:35:03.163Z,1009.64
2023-04-14T05:40:02.831Z,1009.55
2023-04-14T05:45:03.080Z,1009.57
2023-04-14T05:50:03.890Z,1009.53
2023-04-14T05:55:03.869Z,1009.56
2023-04-14T06:00:03.315Z,1009.64
2023-04-14T06:05:03.649Z,1009.75
2023-04-14T06:10:03.782Z,1009.68
2023-04-14T06:15:03.658Z,1009.63
2023-04-14T06:20:03.408Z,1009.74
2023-04-14T06:25:03.433Z,1009.73
2023-04-14T06:30:03.381Z,1009.86
2023-04-14T06:35:03.062Z,1009.89
2023-04-14T06:40:02.944Z,1009.82
2023-04-14T06:45:03.731Z,1009.77
2023-04-14T06:50:03.585Z,1009.79
2023-04-14T06:55:03.705Z,1009.66
2023-04-14T07:00:03.306Z,1009.68
2023-04-14T07:05:03.312Z,1009.67
2023-04-14T07:10:03.925Z,1009.63
2023-04-14T07:15:03.713Z,1009.69
2023-04-14T07:20:03.595Z,1009.64
2023-04-14T07:25:03.244Z,1009.64
2023-04-14T07:30:03.032Z,1009.77
2023-04-14T07:35:03.647Z,1009.73
2023-04-14T07:40:03.535Z,1009.84
2023-04-14T07:45:03.428Z,1009.83
2023-04-14T07:50:03.225Z,1009.91
2023-04-14T07:55:03.511Z,1009.98
2023-04-14T08:00:03.399Z,1010
2023-04-14T08:05:03.155Z,1009.88
2023-04-14T08:10:02.903Z,1009.83
2023-04-14T08:15:03.781Z,1009.84
2023-04-14T08:20:03.482Z,1009.87
2023-04-14T08:25:03.700Z,1009.79
2023-04-14T08:30:03.567Z,1009.82
2023-04-14T08:35:44.301Z,1009.82
2023-04-14T08:40:03.251Z,1009.87
2023-04-14T08:45:03.142Z,1009.79
2023-04-14T08:50:03.113Z,1009.78
2023-04-14T08:55:03.849Z,1009.7
2023-04-14T09:00:03.522Z,1009.77
2023-04-14T09:05:03.686Z,1009.71
2023-04-14T09:10:03.041Z,1009.56
2023-04-14T09:15:03.194Z,1009.54
2023-04-14T09:20:42.728Z,1009.61
2023-04-14T09:25:03.641Z,1009.68
2023-04-14T09:30:03.502Z,1009.7
2023-04-14T09:35:03.542Z,1009.56
2023-04-14T09:40:03.184Z,1009.82
2023-04-14T09:45:03.058Z,1009.75
2023-04-14T09:50:04.053Z,1009.76
2023-04-14T09:55:03.731Z,1009.69
2023-04-14T10:00:03.365Z,1009.74
2023-04-14T10:05:03.378Z,1009.8
2023-04-14T10:10:03.038Z,1009.65
2023-04-14T10:15:03.693Z,1009.69
2023-04-14T10:20:03.490Z,1009.7
2023-04-14T10:25:03.226Z,1009.69
2023-04-14T10:30:03.290Z,1009.76
2023-04-14T10:35:03.817Z,1009.58
2023-04-14T10:40:03.606Z,1009.67
2023-04-14T10:45:03.575Z,1009.58
2023-04-14T10:50:03.306Z,1009.63
2023-04-14T10:55:03.327Z,1009.66
2023-04-14T11:00:02.996Z,1009.62
2023-04-14T11:05:03.858Z,1009.65
2023-04-14T11:10:03.664Z,1009.47
2023-04-14T11:20:03.177Z,1009.49
2023-04-14T11:25:02.888Z,1009.42
2023-04-14T11:35:03.428Z,1009.47
2023-04-14T11:40:03.383Z,1009.44
2023-04-14T11:45:03.231Z,1009.46
2023-04-14T11:50:02.952Z,1009.38
2023-04-14T11:55:03.116Z,1009.3
2023-04-14T12:00:02.921Z,1009.31
2023-04-14T12:05:04.703Z,1009.19
2023-04-14T12:15:02.915Z,1009.09
2023-04-14T12:20:03.090Z,1009.1
2023-04-14T12:25:04.007Z,1009.05
2023-04-14T12:30:03.699Z,1008.98
2023-04-14T12:35:03.325Z,1008.96
2023-04-14T12:40:03.141Z,1008.92
2023-04-14T12:45:02.972Z,1008.91
2023-04-14T12:50:03.728Z,1008.79
2023-04-14T12:55:04.068Z,1008.77
2023-04-14T13:00:03.364Z,1008.84
2023-04-14T13:05:03.075Z,1008.77
2023-04-14T13:10:03.217Z,1008.74
2023-04-14T13:15:03.943Z,1008.75
2023-04-14T13:20:03.582Z,1008.67
2023-04-14T13:25:03.555Z,1008.59
2023-04-14T13:30:03.611Z,1008.6
2023-04-14T13:35:03.588Z,1008.59
2023-04-14T13:40:03.432Z,1008.47
2023-04-14T13:45:02.961Z,1008.43
2023-04-14T13:50:03.591Z,1008.41
2023-04-14T13:55:03.239Z,1008.38
2023-04-14T14:00:03.168Z,1008.37
2023-04-14T14:05:03.071Z,1008.32
2023-04-14T14:10:03.744Z,1008.37
2023-04-14T14:15:03.602Z,1008.25
2023-04-14T14:20:03.373Z,1008.31
2023-04-14T14:25:22.101Z,1008.28
2023-04-14T14:30:03.223Z,1008.23
2023-04-14T14:35:02.818Z,1008.19
2023-04-14T14:40:03.026Z,1008.16
2023-04-14T14:45:03.754Z,1008.15
2023-04-14T14:50:09.224Z,1008
2023-04-14T14:55:03.767Z,1008.1
2023-04-14T15:00:02.847Z,1008.1
2023-04-14T15:05:02.711Z,1008.18
2023-04-14T15:10:03.657Z,1008.06
2023-04-14T15:15:03.451Z,1008.19
2023-04-14T15:20:03.215Z,1008.06
2023-04-14T15:25:03.066Z,1008.25
2023-04-14T15:30:03.791Z,1008.27
2023-04-14T15:35:03.444Z,1008.22
2023-04-14T15:40:03.217Z,1008.29
2023-04-14T15:45:02.994Z,1008.3
2023-04-14T15:50:19.399Z,1008.35
2023-04-14T15:55:03.152Z,1008.39
2023-04-14T16:00:03.229Z,1008.26
2023-04-14T16:05:04.008Z,1008.33
2023-04-14T16:10:03.735Z,1008.32
2023-04-14T16:20:03.655Z,1008.45
2023-04-14T16:25:03.006Z,1008.53
2023-04-14T16:30:03.861Z,1008.46
2023-04-14T16:35:03.667Z,1008.53
2023-04-14T16:40:03.598Z,1008.46
2023-04-14T16:45:03.388Z,1008.56
2023-04-14T16:50:03.366Z,1008.54
2023-04-14T16:55:03.628Z,1008.53
2023-04-14T17:00:03.879Z,1008.66
2023-04-14T17:05:03.879Z,1008.64
2023-04-14T17:10:03.107Z,1008.64
2023-04-14T17:15:02.914Z,1008.66
2023-04-14T17:20:03.645Z,1008.61
2023-04-14T17:25:03.455Z,1008.55
2023-04-14T17:30:03.129Z,1008.56
2023-04-14T17:35:02.803Z,1008.53
2023-04-14T17:40:03.542Z,1008.51
2023-04-14T17:50:03.118Z,1008.47
2023-04-14T17:55:03.476Z,1008.46
2023-04-14T18:00:03.618Z,1008.51
2023-04-14T18:05:03.735Z,1008.39
2023-04-14T18:10:03.323Z,1008.35
2023-04-14T18:15:03.155Z,1008.36
2023-04-14T18:20:02.867Z,1008.33
2023-04-14T18:25:03.743Z,1008.37
2023-04-14T18:30:03.511Z,1008.5
2023-04-14T18:35:03.262Z,1008.49
2023-04-14T18:40:03.457Z,1008.45
2023-04-14T18:45:03.150Z,1008.43
2023-04-14T18:50:03.066Z,1008.41
2023-04-14T18:55:04.759Z,1008.38
2023-04-14T19:00:03.694Z,1008.44
2023-04-14T19:05:03.678Z,1008.4
2023-04-14T19:10:02.834Z,1008.29
2023-04-14T19:15:03.780Z,1008.21
2023-04-14T19:20:03.435Z,1008.26
2023-04-14T19:25:03.443Z,1008.19
2023-04-14T19:30:03.317Z,1008.22
2023-04-14T19:35:02.988Z,1008.24
2023-04-14T19:40:03.795Z,1008.36
2023-04-14T19:45:03.589Z,1008.36
2023-04-14T19:50:03.484Z,1008.48
2023-04-14T19:55:02.906Z,1008.39
2023-04-14T20:00:03.178Z,1008.36
2023-04-14T20:05:03.959Z,1008.38
2023-04-14T20:15:03.722Z,1008.19
2023-04-14T20:20:03.132Z,1008.08
2023-04-14T20:25:02.858Z,1008.08
2023-04-14T20:30:03.788Z,1007.96
2023-04-14T20:35:03.273Z,1007.97
2023-04-14T20:40:03.157Z,1007.89
2023-04-14T20:45:03.792Z,1007.87
2023-04-14T20:50:03.815Z,1007.73
2023-04-14T21:00:03.480Z,1007.63
2023-04-14T21:05:03.220Z,1007.66
2023-04-14T21:10:02.981Z,1007.58
2023-04-14T21:15:57.962Z,1007.57
2023-04-14T21:20:03.020Z,1007.56
2023-04-14T21:25:03.764Z,1007.71
2023-04-14T21:30:03.368Z,1007.73
2023-04-14T21:35:03.290Z,1007.73
2023-04-14T21:40:03.181Z,1007.57
2023-04-14T21:45:03.379Z,1007.56
2023-04-14T21:50:03.756Z,1007.5
2023-04-14T21:55:03.397Z,1007.46
2023-04-14T22:00:03.276Z,1007.47
2023-04-14T22:05:03.152Z,1007.35
2023-04-14T22:10:02.821Z,1007.42
2023-04-14T22:15:03.584Z,1007.38
2023-04-14T22:20:03.276Z,1007.29
2023-04-14T22:25:03.272Z,1007.22
2023-04-14T22:30:03.039Z,1007.26
2023-04-14T22:35:02.932Z,1007.37
2023-04-14T22:40:03.741Z,1007.29
2023-04-14T22:45:03.531Z,1007.31
2023-04-14T22:50:03.426Z,1007.3
2023-04-14T22:55:03.369Z,1007.09
2023-04-14T23:00:03.775Z,1007.22
2023-04-14T23:05:03.561Z,1007.21
2023-04-14T23:10:03.635Z,1007.21
2023-04-14T23:15:03.264Z,1007.11
2023-04-14T23:20:03.004Z,1007.12
2023-04-14T23:25:03.817Z,1007.02
2023-04-14T23:30:02.900Z,1007.02
2023-04-14T23:35:03.581Z,1006.97
2023-04-14T23:40:03.372Z,1006.95
2023-04-14T23:45:03.154Z,1006.86
2023-04-14T23:50:03.003Z,1006.79
2023-04-14T23:55:02.866Z,1006.7
